SEE weather

Gillespie Field
San Diego/El Cajon, California, United States

Public forecast

Using degrees Fahrenheit for public forecast. Weather courtesy of forecast.io.

Current aviation weather report (METAR) for Gillespie Field

Retrieved 2019/11/15 23:47 UTC (40 minutes ago):

KSEE 152347Z 28012KT 10SM SKC 18/12 A3000

Closest aviation forecast (TAF) to Gillespie Field

Forecast is more than 12 hours old.

Closest forecast is Miramar Marine Corps Air Station - Mitscher Field, 9.0 nm (16.6 km) WNW. Retrieved 2014/11/27 15:09 UTC (5 years ago):

TAF COR KNKX 271500Z 2715/2815 VRB05KT 9999 SKC QNH3001INS BECMG 2806/2808 07007KT QNH2998INS TX30/2721Z TN14/2812Z COR 1520